createdAt,value
2023-04-20T00:00:57.311Z,48.10
2023-04-20T00:02:03.502Z,48.11
2023-04-20T00:03:07.926Z,48.11
2023-04-20T00:04:10.895Z,48.11
2023-04-20T00:05:15.623Z,48.11
2023-04-20T00:06:20.361Z,48.13
2023-04-20T00:07:25.370Z,48.11
2023-04-20T00:08:28.059Z,48.15
2023-04-20T00:09:33.335Z,48.15
2023-04-20T00:10:36.125Z,48.15
2023-04-20T00:11:39.955Z,48.13
2023-04-20T00:12:43.393Z,48.16
2023-04-20T00:13:46.115Z,48.17
2023-04-20T00:14:48.918Z,48.17
2023-04-20T00:15:52.254Z,48.17
2023-04-20T00:16:55.704Z,48.20
2023-04-20T00:17:58.580Z,48.19
2023-04-20T00:19:02.610Z,48.21
2023-04-20T00:20:08.623Z,48.22
2023-04-20T00:21:11.407Z,48.20
2023-04-20T00:22:14.676Z,48.19
2023-04-20T00:23:17.458Z,48.20
2023-04-20T00:24:24.121Z,48.19
2023-04-20T00:25:26.808Z,48.19
2023-04-20T00:26:30.908Z,48.20
2023-04-20T00:27:34.990Z,48.17
2023-04-20T00:28:37.836Z,48.15
2023-04-20T00:29:43.487Z,48.17
2023-04-20T00:30:47.128Z,48.19
2023-04-20T00:31:50.657Z,48.17
2023-04-20T00:32:54.542Z,48.23
2023-04-20T00:33:57.324Z,48.21
2023-04-20T00:35:01.019Z,48.24
2023-04-20T00:36:04.594Z,48.22
2023-04-20T00:37:07.111Z,48.21
2023-04-20T00:38:10.835Z,48.43
2023-04-20T00:39:15.789Z,48.43
2023-04-20T00:40:19.405Z,48.22
2023-04-20T00:41:23.091Z,48.20
2023-04-20T00:42:27.307Z,48.21
2023-04-20T00:43:30.161Z,48.21
2023-04-20T00:44:33.102Z,48.20
2023-04-20T00:45:37.734Z,48.21
2023-04-20T00:46:41.164Z,48.22
2023-04-20T00:47:44.281Z,48.21
2023-04-20T00:48:47.617Z,48.21
2023-04-20T00:49:52.143Z,48.29
2023-04-20T00:50:54.847Z,48.33
2023-04-20T00:51:59.767Z,48.35
2023-04-20T00:53:03.630Z,48.33
2023-04-20T00:54:06.775Z,48.36
2023-04-20T00:55:09.860Z,48.35
2023-04-20T00:56:14.840Z,48.35
2023-04-20T00:57:18.736Z,48.33
2023-04-20T00:58:22.023Z,48.35
2023-04-20T00:59:25.643Z,48.38
2023-04-20T01:00:29.508Z,48.37
2023-04-20T01:01:32.581Z,48.39
2023-04-20T01:02:35.971Z,48.42
2023-04-20T01:03:39.548Z,48.43
2023-04-20T01:04:42.608Z,48.46
2023-04-20T01:05:47.333Z,48.49
2023-04-20T01:06:50.044Z,48.52
2023-04-20T01:07:53.287Z,48.52
2023-04-20T01:08:56.581Z,48.52
2023-04-20T01:09:59.385Z,48.55
2023-04-20T01:11:02.059Z,48.59
2023-04-20T01:12:06.358Z,48.60
2023-04-20T01:13:09.166Z,48.62
2023-04-20T01:14:12.040Z,48.62
2023-04-20T01:15:15.196Z,48.67
2023-04-20T01:16:18.001Z,48.68
2023-04-20T01:17:21.699Z,48.72
2023-04-20T01:18:24.549Z,48.74
2023-04-20T01:19:27.549Z,48.75
2023-04-20T01:20:33.256Z,48.79
2023-04-20T01:21:36.538Z,48.80
2023-04-20T01:22:54.228Z,48.84
2023-04-20T01:23:57.005Z,48.87
2023-04-20T01:25:00.953Z,48.91
2023-04-20T01:26:08.512Z,48.93
2023-04-20T01:27:12.996Z,48.96
2023-04-20T01:28:15.834Z,48.96
2023-04-20T01:29:18.616Z,48.95
2023-04-20T01:30:22.025Z,48.98
2023-04-20T01:31:31.269Z,49.02
2023-04-20T01:32:34.117Z,49.00
2023-04-20T01:33:37.103Z,49.06
2023-04-20T01:34:41.933Z,49.05
2023-04-20T01:35:44.651Z,49.05
2023-04-20T01:36:47.660Z,49.09
2023-04-20T01:37:52.420Z,49.07
2023-04-20T01:38:55.461Z,49.06
2023-04-20T01:39:59.150Z,49.05
2023-04-20T01:41:03.898Z,49.06
2023-04-20T01:42:07.045Z,49.06
2023-04-20T01:43:09.737Z,49.07
2023-04-20T01:44:12.888Z,49.14
2023-04-20T01:45:15.842Z,49.10
2023-04-20T01:46:18.859Z,49.11
2023-04-20T01:47:22.950Z,49.13
2023-04-20T01:48:27.808Z,49.16
2023-04-20T01:49:30.982Z,49.12
2023-04-20T01:50:33.913Z,49.15
2023-04-20T01:51:36.837Z,49.20
2023-04-20T01:52:39.649Z,49.17
2023-04-20T01:53:43.296Z,49.20
2023-04-20T01:54:46.270Z,49.21
2023-04-20T01:57:01.811Z,49.27
2023-04-20T01:58:04.517Z,49.23
2023-04-20T01:59:07.294Z,49.38
2023-04-20T02:00:11.626Z,49.35
2023-04-20T02:01:16.317Z,49.38
2023-04-20T02:02:20.101Z,49.37
2023-04-20T02:03:23.897Z,49.35
2023-04-20T02:04:27.086Z,49.33
2023-04-20T02:05:30.810Z,49.34
2023-04-20T02:06:33.870Z,49.35
2023-04-20T02:07:38.055Z,49.31
2023-04-20T02:08:42.647Z,49.32
2023-04-20T02:09:45.442Z,49.29
2023-04-20T02:10:55.070Z,49.29
2023-04-20T02:11:58.719Z,49.28
2023-04-20T02:13:02.756Z,49.26
2023-04-20T02:14:07.850Z,49.27
2023-04-20T02:15:10.914Z,49.22
2023-04-20T02:16:14.013Z,49.23
2023-04-20T02:17:17.585Z,49.23
2023-04-20T02:18:21.011Z,49.21
2023-04-20T02:19:23.830Z,49.22
2023-04-20T02:20:26.948Z,49.20
2023-04-20T02:21:30.145Z,49.24
2023-04-20T02:22:35.102Z,49.28
2023-04-20T02:23:39.956Z,49.33
2023-04-20T02:24:43.202Z,49.32
2023-04-20T02:25:45.874Z,49.33
2023-04-20T02:26:49.008Z,49.34
2023-04-20T02:27:51.802Z,49.34
2023-04-20T02:28:54.617Z,49.29
2023-04-20T02:29:58.808Z,49.27
2023-04-20T02:31:01.594Z,49.26
2023-04-20T02:32:06.623Z,49.21
2023-04-20T02:33:09.453Z,49.22
2023-04-20T02:34:13.135Z,49.18
2023-04-20T02:35:16.533Z,49.21
2023-04-20T02:36:19.562Z,49.27
2023-04-20T02:37:22.664Z,49.37
2023-04-20T02:38:26.605Z,49.39
2023-04-20T02:39:30.841Z,49.45
2023-04-20T02:40:34.250Z,49.53
2023-04-20T02:41:37.929Z,49.64
2023-04-20T02:42:40.715Z,49.70
2023-04-20T02:43:44.832Z,49.73
2023-04-20T02:44:48.663Z,49.82
2023-04-20T02:45:53.049Z,49.84
2023-04-20T02:46:57.444Z,49.90
2023-04-20T02:48:00.697Z,49.93
2023-04-20T02:49:05.244Z,49.98
2023-04-20T02:50:11.929Z,50.00
2023-04-20T02:51:16.506Z,50.01
2023-04-20T02:52:22.456Z,50.06
2023-04-20T02:53:25.330Z,50.20
2023-04-20T02:54:46.769Z,50.19
2023-04-20T02:55:50.227Z,50.20
2023-04-20T02:56:57.236Z,50.22
2023-04-20T02:57:59.624Z,50.23
2023-04-20T02:59:05.101Z,50.25
2023-04-20T03:00:13.115Z,50.20
2023-04-20T03:01:17.780Z,50.29
2023-04-20T03:02:23.064Z,50.28
2023-04-20T03:03:28.196Z,50.26
2023-04-20T03:04:39.197Z,50.27
2023-04-20T03:05:43.772Z,50.33
2023-04-20T03:06:46.875Z,50.28
2023-04-20T03:07:51.449Z,50.32
2023-04-20T03:08:54.593Z,50.26
2023-04-20T03:10:02.529Z,50.25
2023-04-20T03:11:19.075Z,50.24
2023-04-20T03:12:23.181Z,50.27
2023-04-20T03:13:31.647Z,50.27
2023-04-20T03:14:36.733Z,50.28
2023-04-20T03:15:40.133Z,50.32
2023-04-20T03:17:03.813Z,50.32
2023-04-20T03:18:07.906Z,50.29
2023-04-20T03:19:12.631Z,50.26
2023-04-20T03:20:16.498Z,50.27
2023-04-20T03:21:20.400Z,50.23
2023-04-20T03:22:23.127Z,50.27
2023-04-20T03:23:29.145Z,50.24
2023-04-20T03:24:32.368Z,50.23
2023-04-20T03:25:36.802Z,50.23
2023-04-20T03:26:43.107Z,50.21
2023-04-20T03:27:47.763Z,50.21
2023-04-20T03:28:51.193Z,50.18
2023-04-20T03:29:56.859Z,50.21
2023-04-20T03:31:01.109Z,50.20
2023-04-20T03:32:05.118Z,50.17
2023-04-20T03:33:10.904Z,50.15
2023-04-20T03:34:14.023Z,50.15
2023-04-20T03:35:19.709Z,50.16
2023-04-20T03:36:22.783Z,50.15
2023-04-20T03:37:26.005Z,50.16
2023-04-20T03:38:29.729Z,50.15
2023-04-20T03:39:32.489Z,50.13
2023-04-20T03:40:35.895Z,50.15
2023-04-20T03:41:40.095Z,50.14
2023-04-20T03:42:43.128Z,50.11
2023-04-20T03:43:46.167Z,50.10
2023-04-20T03:46:01.242Z,50.05
2023-04-20T03:47:05.809Z,50.05
2023-04-20T03:48:10.032Z,50.08
2023-04-20T03:49:13.848Z,50.05
2023-04-20T03:50:17.478Z,50.01
2023-04-20T03:51:21.220Z,50.02
2023-04-20T03:52:25.266Z,50.02
2023-04-20T03:53:28.760Z,50.01
2023-04-20T03:54:32.821Z,50.01
2023-04-20T03:55:35.873Z,50.00
2023-04-20T03:56:41.358Z,50.00
2023-04-20T03:57:45.761Z,49.98
2023-04-20T03:58:49.520Z,49.98
2023-04-20T03:59:54.194Z,49.99
2023-04-20T04:01:06.252Z,49.98
2023-04-20T04:02:12.460Z,49.98
2023-04-20T04:03:15.940Z,49.93
2023-04-20T04:04:19.141Z,49.93
2023-04-20T04:05:26.018Z,49.96
2023-04-20T04:06:30.984Z,49.98
2023-04-20T04:07:34.635Z,49.96
2023-04-20T04:08:38.435Z,49.98
2023-04-20T04:09:41.721Z,49.94
2023-04-20T04:10:44.771Z,49.99
2023-04-20T04:11:47.767Z,49.97
2023-04-20T04:12:50.769Z,49.98
2023-04-20T04:13:54.877Z,49.96
2023-04-20T04:14:58.213Z,49.96
2023-04-20T04:16:01.413Z,49.96
2023-04-20T04:17:04.346Z,49.93
2023-04-20T04:18:08.708Z,49.89
2023-04-20T04:19:11.669Z,49.87
2023-04-20T04:20:15.801Z,49.85
2023-04-20T04:21:20.577Z,49.81
2023-04-20T04:22:29.294Z,49.76
2023-04-20T04:23:50.316Z,49.76
2023-04-20T04:24:54.920Z,49.70
2023-04-20T04:25:58.097Z,49.65
2023-04-20T04:27:03.561Z,49.61
2023-04-20T04:28:07.322Z,49.61
2023-04-20T04:29:11.786Z,49.59
2023-04-20T04:30:15.948Z,49.58
2023-04-20T04:31:20.973Z,49.56
2023-04-20T04:32:24.743Z,49.56
2023-04-20T04:33:28.161Z,49.48
2023-04-20T04:34:33.295Z,49.48
2023-04-20T04:35:36.472Z,49.50
2023-04-20T04:36:39.689Z,49.74
2023-04-20T04:37:44.373Z,49.74
2023-04-20T04:38:48.579Z,49.44
2023-04-20T04:39:51.995Z,49.40
2023-04-20T04:40:56.712Z,49.40
2023-04-20T04:42:03.667Z,49.38
2023-04-20T04:43:09.669Z,49.33
2023-04-20T04:44:13.345Z,49.30
2023-04-20T04:45:17.852Z,49.29
2023-04-20T04:46:22.000Z,49.30
2023-04-20T04:47:27.849Z,49.27
2023-04-20T04:48:30.621Z,49.23
2023-04-20T04:50:49.571Z,49.15
2023-04-20T04:51:52.757Z,49.15
2023-04-20T04:52:56.367Z,49.13
2023-04-20T04:55:10.906Z,49.06
2023-04-20T04:56:14.630Z,49.01
2023-04-20T04:57:17.208Z,49.04
2023-04-20T04:58:20.238Z,48.99
2023-04-20T04:59:23.680Z,48.93
2023-04-20T05:00:27.724Z,48.95
2023-04-20T05:01:30.748Z,48.93
2023-04-20T05:03:46.696Z,48.91
2023-04-20T05:04:50.105Z,48.92
2023-04-20T05:05:53.146Z,48.92
2023-04-20T05:06:55.818Z,48.91
2023-04-20T05:07:59.761Z,48.92
2023-04-20T05:09:03.038Z,48.92
2023-04-20T05:10:08.069Z,48.93
2023-04-20T05:11:11.730Z,48.92
2023-04-20T05:12:14.725Z,48.91
2023-04-20T05:13:17.533Z,48.93
2023-04-20T05:14:22.492Z,48.95
2023-04-20T05:15:25.633Z,48.97
2023-04-20T05:16:28.756Z,49.00
2023-04-20T05:17:32.528Z,49.04
2023-04-20T05:18:36.235Z,49.07
2023-04-20T05:19:39.052Z,49.07
2023-04-20T05:20:42.333Z,49.10
2023-04-20T05:21:45.309Z,49.12
2023-04-20T05:22:47.894Z,49.13
2023-04-20T05:23:51.411Z,49.23
2023-04-20T05:24:54.515Z,49.22
2023-04-20T05:25:57.435Z,49.25
2023-04-20T05:27:01.045Z,49.25
2023-04-20T05:28:04.009Z,49.27
2023-04-20T05:29:06.685Z,49.27
2023-04-20T05:30:20.457Z,49.30
2023-04-20T05:31:17.754Z,49.30
2023-04-20T05:32:21.192Z,49.38
2023-04-20T05:33:24.628Z,49.40
2023-04-20T05:34:28.265Z,49.40
2023-04-20T05:35:32.200Z,49.38
2023-04-20T05:36:36.500Z,49.35
2023-04-20T05:37:39.393Z,49.35
2023-04-20T05:38:45.077Z,49.35
2023-04-20T05:39:48.544Z,49.32
2023-04-20T05:40:52.570Z,49.32
2023-04-20T05:41:57.343Z,49.28
2023-04-20T05:43:01.105Z,49.27
2023-04-20T05:44:04.146Z,49.24
2023-04-20T05:45:09.669Z,49.22
2023-04-20T05:46:13.295Z,49.27
2023-04-20T05:47:17.386Z,49.27
2023-04-20T05:48:20.857Z,49.23
2023-04-20T05:49:23.735Z,49.23
2023-04-20T05:50:27.245Z,49.23
2023-04-20T05:51:31.762Z,49.23
2023-04-20T05:52:34.722Z,49.27
2023-04-20T05:53:38.021Z,49.28
2023-04-20T05:54:41.945Z,49.25
2023-04-20T05:55:44.790Z,49.22
2023-04-20T05:56:48.064Z,49.20
2023-04-20T05:57:51.730Z,49.29
2023-04-20T05:58:55.895Z,49.28
2023-04-20T05:59:59.778Z,49.27
2023-04-20T06:01:04.627Z,49.23
2023-04-20T06:02:08.404Z,49.23
2023-04-20T06:03:12.972Z,49.18
2023-04-20T06:04:17.209Z,49.12
2023-04-20T06:05:21.000Z,49.07
2023-04-20T06:06:24.231Z,49.01
2023-04-20T06:07:27.249Z,49.00
2023-04-20T06:08:30.165Z,48.94
2023-04-20T06:09:33.380Z,48.92
2023-04-20T06:10:36.616Z,48.92
2023-04-20T06:11:40.143Z,48.88
2023-04-20T06:12:42.847Z,48.87
2023-04-20T06:13:45.678Z,48.86
2023-04-20T06:14:51.405Z,48.83
2023-04-20T06:15:54.616Z,48.80
2023-04-20T06:16:58.673Z,48.83
2023-04-20T06:18:01.828Z,48.82
2023-04-20T06:19:05.629Z,48.77
2023-04-20T06:20:11.029Z,48.76
2023-04-20T06:21:13.670Z,48.75
2023-04-20T06:22:16.433Z,48.76
2023-04-20T06:23:19.114Z,48.73
2023-04-20T06:24:22.249Z,48.74
2023-04-20T06:25:25.033Z,48.70
2023-04-20T06:26:29.869Z,48.68
2023-04-20T06:27:32.531Z,48.65
2023-04-20T06:28:35.850Z,48.63
2023-04-20T06:29:38.487Z,48.63
2023-04-20T06:30:42.202Z,48.57
2023-04-20T06:31:45.136Z,48.52
2023-04-20T06:32:48.069Z,48.51
2023-04-20T06:33:51.437Z,48.52
2023-04-20T06:34:54.907Z,48.47
2023-04-20T06:35:57.742Z,48.75
2023-04-20T06:37:00.640Z,48.75
2023-04-20T06:38:05.484Z,48.29
2023-04-20T06:39:08.675Z,48.29
2023-04-20T06:40:13.726Z,48.39
2023-04-20T06:41:17.992Z,48.41
2023-04-20T06:42:22.039Z,48.45
2023-04-20T06:43:25.718Z,48.52
2023-04-20T06:44:29.296Z,48.49
2023-04-20T06:45:33.996Z,48.48
2023-04-20T06:46:37.356Z,48.41
2023-04-20T06:47:41.490Z,48.38
2023-04-20T06:48:44.203Z,48.33
2023-04-20T06:49:47.114Z,48.28
2023-04-20T06:50:50.519Z,48.20
2023-04-20T06:51:53.083Z,48.15
2023-04-20T06:52:55.676Z,48.08
2023-04-20T06:54:00.491Z,48.03
2023-04-20T06:55:04.326Z,48.01
2023-04-20T06:56:08.137Z,47.99
2023-04-20T06:57:11.475Z,47.92
2023-04-20T06:58:14.706Z,47.91
2023-04-20T06:59:19.102Z,47.89
2023-04-20T07:00:23.606Z,47.87
2023-04-20T07:01:26.968Z,47.82
2023-04-20T07:02:31.628Z,47.81
2023-04-20T07:03:35.022Z,47.77
2023-04-20T07:04:38.075Z,47.74
2023-04-20T07:05:41.809Z,47.71
2023-04-20T07:06:46.326Z,47.71
2023-04-20T07:07:49.785Z,47.67
2023-04-20T07:08:52.609Z,47.70
2023-04-20T07:11:08.684Z,47.62
2023-04-20T07:12:14.097Z,47.61
2023-04-20T07:13:16.727Z,47.64
2023-04-20T07:14:20.640Z,47.61
2023-04-20T07:15:23.488Z,47.61
2023-04-20T07:16:26.126Z,47.57
2023-04-20T07:17:30.935Z,47.53
2023-04-20T07:18:35.420Z,47.54
2023-04-20T07:19:38.690Z,47.48
2023-04-20T07:20:41.818Z,47.51
2023-04-20T07:21:46.386Z,47.51
2023-04-20T07:22:49.078Z,47.55
2023-04-20T07:23:52.283Z,47.50
2023-04-20T07:24:56.163Z,47.67
2023-04-20T07:26:01.083Z,47.80
2023-04-20T07:27:04.017Z,47.12
2023-04-20T07:28:07.773Z,46.19
2023-04-20T07:29:11.011Z,45.73
2023-04-20T07:30:14.758Z,45.51
2023-04-20T07:31:17.778Z,45.80
2023-04-20T07:32:20.670Z,45.82
2023-04-20T07:33:23.859Z,45.70
2023-04-20T07:34:26.576Z,45.62
2023-04-20T07:35:32.148Z,45.50
2023-04-20T07:36:36.361Z,45.39
2023-04-20T07:37:40.766Z,45.48
2023-04-20T07:38:57.325Z,45.37
2023-04-20T07:40:00.946Z,45.25
2023-04-20T07:42:23.801Z,45.18
2023-04-20T07:43:30.297Z,45.10
2023-04-20T07:44:35.078Z,45.19
2023-04-20T07:45:40.776Z,44.95
2023-04-20T07:46:45.477Z,44.73
2023-04-20T07:47:50.083Z,44.86
2023-04-20T07:48:53.370Z,44.82
2023-04-20T07:49:57.075Z,44.92
2023-04-20T07:51:00.066Z,44.82
2023-04-20T07:52:15.108Z,44.86
2023-04-20T07:53:08.725Z,44.84
2023-04-20T07:54:13.876Z,44.96
2023-04-20T07:55:16.870Z,44.70
2023-04-20T07:57:32.822Z,45.12
2023-04-20T07:58:37.600Z,42.48
2023-04-20T07:59:42.792Z,41.72
2023-04-20T08:01:42.607Z,40.96
2023-04-20T08:02:45.679Z,41.18
2023-04-20T08:03:49.199Z,41.57
2023-04-20T08:04:53.015Z,42.24
2023-04-20T08:05:56.443Z,42.74
2023-04-20T08:07:00.424Z,42.37
2023-04-20T08:08:05.891Z,42.52
2023-04-20T08:09:08.558Z,42.76
2023-04-20T08:10:13.233Z,43.45
2023-04-20T08:11:17.780Z,43.76
2023-04-20T08:12:20.578Z,43.81
2023-04-20T08:13:23.494Z,44.12
2023-04-20T08:14:26.956Z,44.16
2023-04-20T08:18:37.733Z,47.09
2023-04-20T08:19:42.335Z,47.23
2023-04-20T08:21:48.143Z,47.28
2023-04-20T08:22:52.701Z,47.47
2023-04-20T08:24:59.191Z,47.44
2023-04-20T08:26:04.240Z,47.44
2023-04-20T08:28:33.305Z,47.69
2023-04-20T08:29:29.066Z,47.55
2023-04-20T08:30:33.088Z,47.48
2023-04-20T08:31:37.787Z,47.45
2023-04-20T08:32:42.474Z,47.49
2023-04-20T08:33:45.157Z,47.45
2023-04-20T08:34:48.880Z,47.42
2023-04-20T08:35:52.341Z,47.34
2023-04-20T08:36:56.373Z,47.41
2023-04-20T08:37:59.882Z,47.39
2023-04-20T08:40:22.123Z,47.48
2023-04-20T08:41:25.734Z,47.40
2023-04-20T08:42:28.324Z,47.36
2023-04-20T08:43:31.746Z,47.32
2023-04-20T08:44:34.404Z,47.31
2023-04-20T08:45:37.425Z,47.35
2023-04-20T08:46:40.676Z,47.30
2023-04-20T08:47:45.131Z,47.26
2023-04-20T08:48:48.806Z,47.26
2023-04-20T08:49:54.124Z,46.89
2023-04-20T08:51:00.335Z,46.38
2023-04-20T08:52:03.020Z,46.56
2023-04-20T08:53:06.009Z,46.58
2023-04-20T08:54:08.785Z,46.25
2023-04-20T08:55:16.903Z,46.18
2023-04-20T08:56:20.127Z,46.25
2023-04-20T08:57:22.837Z,45.87
2023-04-20T08:58:27.602Z,46.11
2023-04-20T08:59:31.501Z,45.90
2023-04-20T09:00:35.863Z,45.90
2023-04-20T09:01:40.290Z,45.84
2023-04-20T09:02:51.594Z,45.24
2023-04-20T09:03:55.424Z,44.96
2023-04-20T09:05:05.378Z,44.94
2023-04-20T09:06:16.443Z,44.74
2023-04-20T09:07:21.408Z,44.89
2023-04-20T09:10:08.331Z,44.81
2023-04-20T09:12:42.408Z,45.13
2023-04-20T09:13:46.462Z,45.22
2023-04-20T09:14:49.075Z,45.33
2023-04-20T09:15:52.127Z,45.28
2023-04-20T09:17:04.663Z,45.34
2023-04-20T09:18:15.448Z,45.56
2023-04-20T09:19:25.426Z,45.68
2023-04-20T09:20:31.357Z,45.37
2023-04-20T09:21:34.629Z,45.39
2023-04-20T09:22:37.465Z,45.42
2023-04-20T09:23:40.178Z,45.57
2023-04-20T09:24:42.974Z,45.21
2023-04-20T09:25:49.290Z,45.72
2023-04-20T09:26:52.383Z,45.72
2023-04-20T09:27:56.588Z,45.48
2023-04-20T09:30:14.075Z,45.58
2023-04-20T09:31:21.823Z,45.69
2023-04-20T09:32:24.808Z,45.82
2023-04-20T09:33:28.102Z,45.61
2023-04-20T09:34:31.207Z,45.76
2023-04-20T09:35:35.630Z,45.92
2023-04-20T09:36:46.466Z,46.15
2023-04-20T09:37:49.226Z,46.29
2023-04-20T09:39:04.233Z,46.18
2023-04-20T09:40:08.652Z,46.19
2023-04-20T09:41:11.832Z,45.30
2023-04-20T09:42:15.839Z,45.30
2023-04-20T09:43:19.959Z,45.85
2023-04-20T09:44:24.371Z,45.88
2023-04-20T09:45:28.013Z,45.92
2023-04-20T09:46:34.863Z,45.68
2023-04-20T09:47:39.581Z,45.58
2023-04-20T09:48:42.325Z,45.85
2023-04-20T09:49:46.469Z,45.87
2023-04-20T09:50:50.700Z,45.61
2023-04-20T09:51:54.930Z,45.65
2023-04-20T09:52:58.495Z,45.69
2023-04-20T09:54:02.640Z,46.00
2023-04-20T09:55:07.124Z,46.25
2023-04-20T09:56:09.860Z,46.03
2023-04-20T09:57:14.617Z,46.23
2023-04-20T09:58:19.758Z,46.75
2023-04-20T09:59:23.509Z,46.52
2023-04-20T10:00:26.718Z,46.57
2023-04-20T10:01:31.013Z,46.17
2023-04-20T10:02:34.057Z,46.47
2023-04-20T10:03:38.160Z,46.78
2023-04-20T10:04:57.659Z,46.52
2023-04-20T10:06:02.069Z,46.63
2023-04-20T10:07:05.694Z,45.43
2023-04-20T10:08:11.114Z,45.77
2023-04-20T10:09:17.626Z,45.75
2023-04-20T10:10:20.439Z,45.95
2023-04-20T10:11:49.173Z,45.94
2023-04-20T10:12:50.389Z,45.41
2023-04-20T10:13:54.161Z,45.47
2023-04-20T10:14:57.308Z,45.62
2023-04-20T10:16:00.134Z,45.04
2023-04-20T10:17:04.829Z,45.05
2023-04-20T10:19:43.052Z,45.21
2023-04-20T10:20:47.868Z,45.38
2023-04-20T10:21:52.030Z,45.61
2023-04-20T10:23:07.053Z,45.04
2023-04-20T10:24:09.636Z,45.02
2023-04-20T10:25:18.741Z,45.34
2023-04-20T10:26:22.530Z,45.36
2023-04-20T10:27:26.439Z,45.26
2023-04-20T10:28:39.928Z,44.96
2023-04-20T10:29:44.723Z,45.31
2023-04-20T10:30:51.962Z,45.51
2023-04-20T10:31:55.096Z,45.52
2023-04-20T10:33:09.409Z,45.75
2023-04-20T10:34:12.165Z,45.77
2023-04-20T10:35:16.250Z,45.05
2023-04-20T10:37:51.916Z,45.13
2023-04-20T10:38:55.854Z,44.85
2023-04-20T10:41:21.695Z,44.93
2023-04-20T10:42:34.511Z,44.89
2023-04-20T10:43:41.851Z,45.03
2023-04-20T10:44:51.989Z,44.91
2023-04-20T10:45:55.413Z,45.01
2023-04-20T10:46:58.769Z,44.68
2023-04-20T10:48:10.899Z,45.21
2023-04-20T10:49:14.696Z,45.24
2023-04-20T10:50:18.625Z,45.52
2023-04-20T10:51:22.619Z,44.49
2023-04-20T10:52:33.782Z,45.12
2023-04-20T10:53:36.688Z,45.42
2023-04-20T10:54:39.907Z,45.12
2023-04-20T10:55:42.851Z,44.95
2023-04-20T10:56:52.918Z,44.64
2023-04-20T10:57:59.031Z,44.49
2023-04-20T10:59:08.942Z,44.42
2023-04-20T11:00:20.374Z,44.60
2023-04-20T11:01:23.331Z,44.46
2023-04-20T11:02:28.320Z,44.94
2023-04-20T11:03:33.082Z,44.22
2023-04-20T11:04:36.612Z,44.14
2023-04-20T11:05:39.873Z,44.89
2023-04-20T11:06:43.979Z,45.01
2023-04-20T11:07:49.269Z,45.05
2023-04-20T11:08:52.078Z,44.86
2023-04-20T11:09:55.885Z,44.99
2023-04-20T11:10:58.664Z,44.97
2023-04-20T11:12:05.721Z,44.89
2023-04-20T11:13:26.236Z,45.11
2023-04-20T11:14:30.322Z,45.11
2023-04-20T11:15:33.629Z,44.93
2023-04-20T11:16:51.364Z,44.14
2023-04-20T11:17:47.828Z,44.00
2023-04-20T11:18:54.251Z,44.68
2023-04-20T11:20:10.467Z,44.69
2023-04-20T11:21:13.749Z,43.90
2023-04-20T11:22:25.703Z,44.50
2023-04-20T11:23:32.711Z,43.81
2023-04-20T11:24:37.655Z,43.64
2023-04-20T11:27:06.759Z,43.92
2023-04-20T11:28:09.515Z,44.42
2023-04-20T11:29:13.432Z,44.57
2023-04-20T11:30:17.528Z,44.25
2023-04-20T11:31:21.065Z,44.21
2023-04-20T11:32:24.731Z,44.39
2023-04-20T11:33:28.543Z,44.44
2023-04-20T11:34:32.014Z,44.61
2023-04-20T11:35:39.370Z,44.66
2023-04-20T11:36:43.065Z,44.68
2023-04-20T11:37:48.470Z,44.72
2023-04-20T11:38:51.647Z,44.74
2023-04-20T11:41:18.337Z,44.73
2023-04-20T11:42:21.947Z,44.80
2023-04-20T11:43:24.940Z,44.82
2023-04-20T11:44:27.901Z,44.79
2023-04-20T11:45:36.363Z,44.76
2023-04-20T11:46:49.259Z,44.76
2023-04-20T11:47:54.442Z,44.78
2023-04-20T11:48:59.637Z,44.81
2023-04-20T11:50:04.181Z,44.77
2023-04-20T11:51:08.112Z,44.80
2023-04-20T11:52:14.360Z,44.77
2023-04-20T11:53:18.317Z,44.77
2023-04-20T11:54:22.477Z,44.75
2023-04-20T11:55:25.752Z,44.73
2023-04-20T11:56:28.729Z,44.71
2023-04-20T11:57:32.828Z,44.75
2023-04-20T11:58:36.163Z,44.75
2023-04-20T11:59:39.859Z,44.76
2023-04-20T12:00:42.540Z,44.66
2023-04-20T12:01:47.041Z,44.54
2023-04-20T12:02:50.483Z,44.51
2023-04-20T12:03:56.220Z,44.42
2023-04-20T12:05:02.243Z,44.29
2023-04-20T12:07:17.846Z,44.13
2023-04-20T12:08:23.487Z,44.29
2023-04-20T12:09:27.826Z,44.38
2023-04-20T12:10:32.103Z,44.34
2023-04-20T12:11:34.831Z,44.27
2023-04-20T12:12:37.967Z,44.34
2023-04-20T12:13:40.660Z,44.34
2023-04-20T12:14:43.923Z,44.29
2023-04-20T12:15:47.159Z,44.31
2023-04-20T12:16:50.283Z,44.35
2023-04-20T12:17:53.923Z,44.36
2023-04-20T12:18:57.593Z,44.38
2023-04-20T12:20:00.937Z,44.42
2023-04-20T12:21:04.632Z,44.45
2023-04-20T12:22:07.379Z,44.48
2023-04-20T12:24:23.544Z,44.56
2023-04-20T12:25:26.317Z,44.52
2023-04-20T12:26:37.952Z,44.52
2023-04-20T12:27:38.013Z,44.55
2023-04-20T12:28:48.954Z,44.55
2023-04-20T12:29:51.747Z,44.47
2023-04-20T12:30:56.305Z,44.45
2023-04-20T12:32:02.458Z,44.47
2023-04-20T12:34:21.650Z,44.41
2023-04-20T12:35:25.141Z,44.43
2023-04-20T12:36:28.296Z,44.35
2023-04-20T12:37:31.570Z,44.30
2023-04-20T12:38:37.153Z,44.33
2023-04-20T12:39:39.762Z,44.33
2023-04-20T12:40:43.327Z,44.33
2023-04-20T12:41:46.318Z,44.38
2023-04-20T12:42:49.345Z,44.29
2023-04-20T12:43:54.377Z,44.37
2023-04-20T12:44:58.105Z,44.36
2023-04-20T12:46:02.886Z,44.34
2023-04-20T12:47:05.849Z,44.28
2023-04-20T12:48:08.479Z,44.29
2023-04-20T12:49:11.140Z,44.30
2023-04-20T12:50:15.314Z,44.32
2023-04-20T12:51:20.205Z,44.30
2023-04-20T12:52:23.512Z,44.29
2023-04-20T12:53:26.223Z,44.32
2023-04-20T12:54:30.000Z,44.33
2023-04-20T12:55:32.876Z,44.32
2023-04-20T12:56:36.211Z,44.29
2023-04-20T12:57:40.247Z,44.17
2023-04-20T12:58:44.672Z,44.09
2023-04-20T12:59:48.159Z,43.94
2023-04-20T13:00:51.759Z,43.92
2023-04-20T13:01:55.011Z,43.88
2023-04-20T13:03:00.391Z,43.80
2023-04-20T13:05:16.237Z,43.74
2023-04-20T13:06:20.404Z,43.79
2023-04-20T13:07:25.553Z,43.83
2023-04-20T13:08:28.349Z,43.62
2023-04-20T13:09:31.652Z,43.71
2023-04-20T13:10:36.115Z,43.40
2023-04-20T13:11:39.145Z,43.40
2023-04-20T13:12:42.299Z,43.31
2023-04-20T13:13:45.379Z,43.50
2023-04-20T13:14:49.070Z,43.61
2023-04-20T13:15:54.207Z,43.66
2023-04-20T13:16:59.471Z,43.67
2023-04-20T13:18:02.745Z,43.58
2023-04-20T13:19:05.494Z,43.71
2023-04-20T13:20:10.464Z,43.81
2023-04-20T13:21:15.373Z,43.79
2023-04-20T13:22:20.141Z,43.80
2023-04-20T13:23:23.375Z,43.87
2023-04-20T13:25:39.207Z,43.86
2023-04-20T13:26:42.168Z,43.85
2023-04-20T13:27:44.610Z,44.15
2023-04-20T13:28:48.422Z,44.15
2023-04-20T13:29:51.073Z,44.18
2023-04-20T13:30:56.043Z,44.18
2023-04-20T13:31:59.001Z,44.57
2023-04-20T13:33:02.771Z,44.81
2023-04-20T13:34:05.810Z,45.25
2023-04-20T13:36:25.135Z,45.92
2023-04-20T13:37:28.393Z,45.81
2023-04-20T13:38:31.848Z,46.05
2023-04-20T13:39:35.201Z,46.15
2023-04-20T13:40:38.583Z,46.31
2023-04-20T13:41:42.221Z,46.39
2023-04-20T13:42:45.267Z,46.41
2023-04-20T13:45:00.409Z,46.44
2023-04-20T13:46:04.525Z,46.21
2023-04-20T13:47:07.672Z,46.43
2023-04-20T13:48:11.924Z,46.42
2023-04-20T13:49:16.708Z,46.38
2023-04-20T13:50:19.792Z,46.13
2023-04-20T13:51:22.766Z,46.13
2023-04-20T13:52:25.772Z,46.09
2023-04-20T13:53:29.040Z,46.07
2023-04-20T13:54:32.426Z,46.06
2023-04-20T13:55:35.157Z,46.21
2023-04-20T13:56:37.815Z,46.21
2023-04-20T13:57:41.783Z,46.09
2023-04-20T13:58:45.471Z,46.09
2023-04-20T13:59:48.682Z,46.14
2023-04-20T14:00:52.901Z,46.14
2023-04-20T14:01:55.668Z,46.13
2023-04-20T14:02:58.482Z,46.17
2023-04-20T14:04:02.656Z,46.24
2023-04-20T14:05:06.435Z,46.25
2023-04-20T14:06:10.272Z,46.25
2023-04-20T14:07:13.113Z,46.23
2023-04-20T14:08:15.949Z,46.33
2023-04-20T14:09:19.362Z,46.36
2023-04-20T14:10:22.502Z,46.41
2023-04-20T14:11:25.821Z,46.51
2023-04-20T14:12:29.489Z,46.50
2023-04-20T14:13:33.412Z,46.63
2023-04-20T14:14:36.093Z,46.55
2023-04-20T14:15:40.775Z,46.62
2023-04-20T14:16:45.995Z,46.55
2023-04-20T14:17:50.291Z,46.70
2023-04-20T14:18:55.016Z,46.64
2023-04-20T14:19:59.975Z,46.78
2023-04-20T14:21:02.900Z,46.75
2023-04-20T14:22:05.595Z,46.74
2023-04-20T14:23:09.768Z,46.78
2023-04-20T14:24:13.213Z,46.79
2023-04-20T14:25:17.200Z,46.79
2023-04-20T14:27:32.069Z,46.86
2023-04-20T14:28:35.340Z,46.84